Time;durP1;ratioP1;P1;durP2;ratioP2;P2;SDS_P1;SDS_P2;PMS_P1;PMS_P2;Temp;Humidity;BMP_temperature;BMP_pressure;BME280_temperature;BME280_humidity;BME280_pressure;Samples;Min_cycle;Max_cycle;Signal;HPM_P1;HPM_P2
2021/05/27 00:01:33;;;;;;;19.05;15.78;;;;;;;16.04;75.01;101138.59;1788685;80;21102;-78
2021/05/27 00:03:59;;;;;;;20.17;15.43;;;;;;;16.01;74.92;101127.38;1788712;80;20993;-78
2021/05/27 00:06:26;;;;;;;17.35;15.72;;;;;;;15.99;74.82;101135.45;1788780;80;20969;-78
2021/05/27 00:08:54;;;;;;;18.65;16.60;;;;;;;15.98;74.88;101135.08;1788761;79;21036;-78
2021/05/27 00:11:21;;;;;;;17.55;15.80;;;;;;;15.95;74.88;101130.03;1788791;80;21553;-78
2021/05/27 00:13:49;;;;;;;16.95;15.40;;;;;;;15.91;75.03;101128.56;1788647;80;20889;-78
2021/05/27 00:16:16;;;;;;;16.52;14.40;;;;;;;15.86;75.26;101126.27;1788668;80;20970;-78
2021/05/27 00:18:51;;;;;;;15.98;14.38;;;;;;;15.88;75.46;101131.45;1782851;80;21017;-77
2021/05/27 00:21:14;;;;;;;17.90;16.02;;;;;;;15.86;75.42;101136.00;1774575;80;21442;-75
2021/05/27 00:23:41;;;;;;;17.42;15.65;;;;;;;15.84;75.67;101134.78;1775220;80;20930;-76
2021/05/27 00:26:08;;;;;;;17.87;16.17;;;;;;;15.85;75.32;101132.98;1775178;80;21089;-77
2021/05/27 00:28:35;;;;;;;18.07;16.12;;;;;;;15.85;75.32;101132.98;1775134;80;20981;-77
2021/05/27 00:31:02;;;;;;;17.70;15.95;;;;;;;15.84;75.53;101136.11;1774589;80;20871;-78
2021/05/27 00:33:29;;;;;;;18.48;15.83;;;;;;;15.81;75.42;101132.37;1774703;80;20919;-77
2021/05/27 00:35:55;;;;;;;19.60;17.67;;;;;;;15.77;75.45;101134.05;1774785;80;20954;-77
2021/05/27 00:38:22;;;;;;;18.20;16.32;;;;;;;15.73;75.72;101135.57;1774511;80;21059;-77
2021/05/27 00:40:49;;;;;;;18.92;17.02;;;;;;;15.71;75.61;101127.39;1774627;80;20953;-78
2021/05/27 00:43:16;;;;;;;18.82;17.05;;;;;;;15.71;75.61;101127.39;1774812;80;21483;-78
2021/05/27 00:45:44;;;;;;;17.32;15.55;;;;;;;15.71;75.95;101138.80;1774466;80;20927;-77
2021/05/27 00:48:57;;;;;;;16.85;15.25;;;;;;;15.70;75.95;101142.88;1774792;80;20922;-78
2021/05/27 00:50:42;;;;;;;17.90;16.17;;;;;;;15.66;75.82;101136.11;1771030;80;21810;-75
2021/05/27 00:53:09;;;;;;;20.82;16.27;;;;;;;15.59;76.11;101138.84;1774544;80;20914;-77
2021/05/27 00:55:38;;;;;;;17.35;15.65;;;;;;;15.53;76.32;101136.99;1774544;80;21398;-79
2021/05/27 00:58:05;;;;;;;18.87;14.47;;;;;;;15.53;76.67;101143.60;1752706;80;21006;-77
2021/05/27 01:00:32;;;;;;;16.75;15.15;;;;;;;15.51;76.87;101142.87;1774562;80;20927;-77
2021/05/27 01:02:59;;;;;;;17.42;15.53;;;;;;;15.45;77.27;101146.43;1774644;80;21702;-78
2021/05/27 01:05:26;;;;;;;18.23;16.32;;;;;;;15.45;77.27;101146.43;1774638;80;20966;-79
2021/05/27 01:07:53;;;;;;;17.00;15.35;;;;;;;15.41;77.22;101149.80;1774656;80;20879;-78
2021/05/27 01:10:22;;;;;;;16.15;14.73;;;;;;;15.38;77.26;101143.88;1772868;80;20935;-79
2021/05/27 01:12:49;;;;;;;16.80;15.18;;;;;;;15.31;77.31;101142.14;1774648;80;20906;-79
2021/05/27 01:15:34;;;;;;;15.00;13.65;;;;;;;15.25;77.46;101148.73;1774579;80;21555;-78
2021/05/27 01:18:16;;;;;;;17.32;15.55;;;;;;;15.25;77.46;101148.73;1774427;80;20894;-77
2021/05/27 01:20:47;;;;;;;16.07;14.53;;;;;;;15.22;77.78;101146.28;1774234;80;21009;-77
2021/05/27 01:23:14;;;;;;;20.30;16.00;;;;;;;15.20;77.93;101143.39;1773898;80;20911;-78
2021/05/27 01:25:52;;;;;;;17.73;16.00;;;;;;;15.17;78.08;101147.09;1776056;79;21131;-77
2021/05/27 01:28:19;;;;;;;17.62;14.18;;;;;;;15.16;78.12;101150.67;1778300;78;21366;-76
2021/05/27 01:30:46;;;;;;;15.65;14.25;;;;;;;15.15;78.01;101148.16;1778010;80;20902;-77
2021/05/27 01:33:18;;;;;;;16.20;14.68;;;;;;;15.13;77.96;101146.45;1767852;80;20946;-76
2021/05/27 01:35:46;;;;;;;17.10;15.38;;;;;;;15.11;77.98;101147.52;1777637;80;20990;-76
2021/05/27 01:38:16;;;;;;;16.40;14.70;;;;;;;15.10;77.65;101156.42;1774816;80;20943;-76
2021/05/27 01:40:44;;;;;;;16.12;14.65;;;;;;;15.07;77.44;101156.61;1774630;80;21078;-76
2021/05/27 01:43:13;;;;;;;15.15;13.65;;;;;;;15.02;77.30;101154.30;1774618;80;20906;-76
2021/05/27 01:45:42;;;;;;;15.10;13.75;;;;;;;14.98;77.33;101150.66;1774591;80;20854;-76
2021/05/27 01:48:09;;;;;;;16.07;13.32;;;;;;;14.91;77.49;101148.92;1774431;80;21415;-76
2021/05/27 01:50:41;;;;;;;16.37;11.33;;;;;;;14.86;77.68;101147.09;1774246;80;21518;-77
2021/05/27 01:53:09;;;;;;;14.33;13.08;;;;;;;14.82;77.87;101150.89;1754115;80;21644;-76
2021/05/27 01:55:45;;;;;;;12.93;11.60;;;;;;;14.79;78.20;101150.62;1774415;80;21013;-77
2021/05/27 01:58:12;;;;;;;14.47;12.93;;;;;;;14.81;78.31;101156.66;1774546;80;21450;-78
2021/05/27 02:00:41;;;;;;;18.95;13.20;;;;;;;14.85;78.32;101159.91;1774494;80;21002;-77
2021/05/27 02:03:08;;;;;;;14.00;12.75;;;;;;;14.85;78.17;101151.53;1774558;80;21518;-78
2021/05/27 02:05:37;;;;;;;15.63;12.05;;;;;;;14.87;78.15;101152.27;1774693;80;21160;-79
2021/05/27 02:08:05;;;;;;;13.35;11.93;;;;;;;14.88;77.96;101153.95;1774578;80;20894;-78
2021/05/27 02:10:36;;;;;;;15.98;11.88;;;;;;;14.85;77.85;101154.63;1774018;80;20946;-78
2021/05/27 02:13:05;;;;;;;13.30;12.05;;;;;;;14.85;77.85;101154.63;1774416;80;20997;-79
2021/05/27 02:15:33;;;;;;;14.13;11.63;;;;;;;14.84;78.01;101153.78;1774720;80;20890;-79
2021/05/27 02:18:01;;;;;;;13.78;12.37;;;;;;;14.87;77.95;101153.59;1774478;80;21100;-78
2021/05/27 02:20:28;;;;;;;14.38;13.00;;;;;;;14.89;77.76;101154.78;1779114;80;20997;-77
2021/05/27 02:22:56;;;;;;;14.25;12.68;;;;;;;14.89;77.76;101154.78;1780314;80;20954;-77
2021/05/27 02:25:40;;;;;;;;;;;;;;;14.92;77.76;101159.39;1716943;83;21432;-77
2021/05/27 02:28:09;;;;;;;15.35;13.93;;;;;;;14.93;77.63;101156.27;1714677;83;20152;-78
2021/05/27 02:30:37;;;;;;;14.05;12.58;;;;;;;14.91;77.59;101157.69;1677823;85;21544;-77
2021/05/27 02:33:06;;;;;;;16.75;12.05;;;;;;;14.89;77.67;101160.91;1677571;84;21011;-78
2021/05/27 02:35:35;;;;;;;15.05;13.38;;;;;;;14.87;77.77;101160.20;1714735;83;20978;-78
2021/05/27 02:38:03;;;;;;;17.12;11.73;;;;;;;14.85;77.87;101160.77;1677824;85;20899;-78
2021/05/27 02:40:32;;;;;;;14.00;12.63;;;;;;;14.82;78.07;101160.13;1677797;85;20953;-77
2021/05/27 02:43:01;;;;;;;14.23;12.75;;;;;;;14.81;78.27;101162.41;1677910;85;21200;-78
2021/05/27 02:45:31;;;;;;;14.07;11.38;;;;;;;14.82;78.29;101157.00;1677761;84;21444;-78
2021/05/27 02:47:58;;;;;;;14.38;11.80;;;;;;;14.85;78.12;101166.05;1714690;83;21025;-79
2021/05/27 02:50:27;;;;;;;14.00;11.45;;;;;;;14.84;78.02;101156.42;1677753;85;20979;-78
2021/05/27 02:52:56;;;;;;;14.33;10.88;;;;;;;14.85;78.83;101151.98;1714590;83;21538;-78
2021/05/27 02:55:25;;;;;;;18.07;13.03;;;;;;;14.85;78.83;101151.98;1677844;85;20967;-78
2021/05/27 02:57:53;;;;;;;17.60;13.10;;;;;;;14.90;78.81;101153.84;1655026;85;20927;-78
2021/05/27 03:00:22;;;;;;;13.98;11.25;;;;;;;14.98;78.83;101156.78;1756304;80;20906;-77
2021/05/27 03:02:50;;;;;;;12.75;11.45;;;;;;;15.05;78.54;101151.91;1778316;80;20910;-77
2021/05/27 03:05:17;;;;;;;12.47;11.38;;;;;;;15.13;78.22;101156.19;1752192;80;21002;-77
2021/05/27 03:07:45;;;;;;;14.85;13.20;;;;;;;15.20;78.04;101159.24;1780156;80;21088;-78
2021/05/27 03:10:14;;;;;;;20.00;13.38;;;;;;;15.31;77.52;101159.32;1780113;80;21365;-78
2021/05/27 03:12:44;;;;;;;14.68;13.28;;;;;;;15.31;77.52;101159.32;1780243;80;20881;-77
2021/05/27 03:15:12;;;;;;;15.03;11.83;;;;;;;15.35;77.63;101155.51;1780320;80;20914;-76
2021/05/27 03:17:39;;;;;;;13.48;12.10;;;;;;;15.42;77.69;101158.56;1780285;80;20899;-78
2021/05/27 03:20:09;;;;;;;15.68;11.88;;;;;;;15.46;77.84;101152.10;1780205;80;21083;-78
2021/05/27 03:22:37;;;;;;;12.40;11.18;;;;;;;15.57;78.12;101159.27;1751973;80;21032;-80
2021/05/27 03:25:06;;;;;;;12.30;11.12;;;;;;;15.57;78.12;101159.27;1780383;80;20909;-78
2021/05/27 03:27:33;;;;;;;13.40;11.97;;;;;;;15.67;77.71;101162.91;1780141;80;20913;-80
2021/05/27 03:30:00;;;;;;;13.18;11.48;;;;;;;15.74;77.69;101151.82;1751869;80;20978;-78
2021/05/27 03:32:29;;;;;;;16.30;12.00;;;;;;;15.87;77.56;101155.70;1780335;80;21501;-78
2021/05/27 03:34:57;;;;;;;20.88;12.35;;;;;;;15.95;77.63;101153.83;1780055;80;20989;-79
2021/05/27 03:37:25;;;;;;;17.60;12.13;;;;;;;16.06;77.58;101152.55;1780170;80;20933;-81
2021/05/27 03:40:12;;;;;;;20.35;12.15;;;;;;;16.33;76.48;101157.56;1780169;80;20891;-80
2021/05/27 03:42:52;;;;;;;17.92;12.90;;;;;;;16.33;76.48;101157.56;1780339;80;21269;-79
2021/05/27 03:45:24;;;;;;;26.73;14.00;;;;;;;16.48;76.14;101147.62;1778794;80;21096;-79
2021/05/27 03:47:55;;;;;;;16.67;13.15;;;;;;;16.77;75.37;101140.56;1773749;80;20866;-79
2021/05/27 03:50:25;;;;;;;16.67;12.43;;;;;;;16.77;75.37;101140.56;1780286;80;20886;-79
2021/05/27 03:52:52;;;;;;;13.70;11.48;;;;;;;16.89;75.22;101143.59;1780157;80;20921;-79
2021/05/27 03:55:21;;;;;;;19.85;13.30;;;;;;;17.02;75.17;101143.97;1780246;80;21419;-79
2021/05/27 03:57:51;;;;;;;17.27;13.08;;;;;;;17.15;75.15;101141.55;1780182;80;21117;-78
2021/05/27 04:00:45;;;;;;;19.15;13.28;;;;;;;17.30;75.14;101143.47;1780198;80;21017;-79
2021/05/27 04:03:11;;;;;;;18.45;13.25;;;;;;;17.44;74.86;101143.68;1779544;80;20910;-80
2021/05/27 04:08:25;;;;;;;18.27;13.58;;;;;;;17.84;74.57;101143.61;1780472;80;20981;-79
2021/05/27 04:10:54;;;;;;;17.77;13.65;;;;;;;18.18;74.18;101145.13;1780240;80;20886;-79
2021/05/27 04:13:21;;;;;;;17.85;12.88;;;;;;;18.62;73.86;101145.00;1780349;80;21415;-79
2021/05/27 04:15:51;;;;;;;16.87;12.13;;;;;;;19.12;72.83;101140.27;1780477;80;20966;-78
2021/05/27 04:18:22;;;;;;;14.83;12.28;;;;;;;19.67;71.59;101143.34;1780361;80;21391;-78
2021/05/27 04:20:55;;;;;;;24.10;12.55;;;;;;;20.26;70.03;101138.39;1776250;80;21408;-81
2021/05/27 04:23:39;;;;;;;20.60;12.85;;;;;;;20.89;68.21;101140.98;1774588;80;21061;-79
2021/05/27 04:26:12;;;;;;;17.37;12.25;;;;;;;21.48;66.33;101144.23;1774751;80;21009;-78
2021/05/27 04:28:40;;;;;;;24.25;12.00;;;;;;;22.10;64.53;101140.32;1774570;80;20991;-76
2021/05/27 04:31:11;;;;;;;31.42;13.20;;;;;;;22.62;63.12;101140.37;1774822;80;21399;-78
2021/05/27 04:33:42;;;;;;;23.98;11.28;;;;;;;23.14;61.80;101144.82;1774601;80;20914;-76
2021/05/27 04:36:15;;;;;;;23.38;12.75;;;;;;;23.63;60.03;101148.97;1753373;80;21160;-77
2021/05/27 04:38:42;;;;;;;26.55;11.97;;;;;;;24.08;58.43;101144.19;1774416;80;20905;-76
2021/05/27 04:41:10;;;;;;;16.40;11.00;;;;;;;24.48;57.27;101140.69;1774583;80;20898;-76
2021/05/27 04:43:40;;;;;;;18.70;12.93;;;;;;;24.85;56.26;101144.59;1774685;80;21146;-77
2021/05/27 04:46:10;;;;;;;21.97;12.82;;;;;;;25.20;55.43;101133.91;1774683;80;21410;-78
2021/05/27 04:48:37;;;;;;;22.02;12.95;;;;;;;25.57;54.50;101136.40;1774512;80;21588;-75
2021/05/27 04:51:04;;;;;;;27.02;14.23;;;;;;;25.93;53.81;101135.00;1774449;80;20906;-76
2021/05/27 04:53:34;;;;;;;30.97;14.85;;;;;;;26.30;52.18;101134.66;1774641;80;21328;-80
2021/05/27 04:56:01;;;;;;;32.48;16.55;;;;;;;26.61;51.75;101134.53;1774471;80;20938;-81
2021/05/27 04:58:34;;;;;;;37.23;19.57;;;;;;;26.86;51.25;101136.45;1774339;80;21152;-81
2021/05/27 05:01:05;;;;;;;25.57;19.50;;;;;;;27.06;50.97;101142.92;1751559;80;20887;-79
2021/05/27 05:03:35;;;;;;;29.67;19.85;;;;;;;27.28;50.18;101138.98;1774387;80;21017;-81
2021/05/27 05:06:06;;;;;;;26.95;20.52;;;;;;;27.49;49.91;101140.86;1774711;80;20902;-82
2021/05/27 05:08:33;;;;;;;30.15;24.00;;;;;;;27.71;49.26;101139.02;1774016;80;20922;-77
2021/05/27 05:11:00;;;;;;;35.98;23.45;;;;;;;27.89;48.11;101134.55;1774399;80;20915;-73
2021/05/27 05:13:27;;;;;;;41.25;24.85;;;;;;;28.11;47.71;101134.02;1774365;80;21945;-81
2021/05/27 05:15:57;;;;;;;35.85;23.10;;;;;;;28.32;46.82;101133.13;1774130;80;20958;-70
2021/05/27 05:18:24;;;;;;;33.90;23.80;;;;;;;28.47;46.40;101139.28;1774899;80;20866;-71
2021/05/27 05:20:52;;;;;;;49.88;23.15;;;;;;;28.61;45.26;101138.84;1774420;79;20899;-73
2021/05/27 05:23:21;;;;;;;32.33;23.87;;;;;;;28.70;44.91;101138.17;1774411;80;20918;-72
2021/05/27 05:25:49;;;;;;;40.08;23.50;;;;;;;28.78;43.39;101134.48;1774816;80;21019;-71
2021/05/27 05:28:16;;;;;;;37.05;23.35;;;;;;;28.83;43.17;101131.48;1773775;80;21518;-73
2021/05/27 05:30:45;;;;;;;36.03;23.42;;;;;;;29.01;42.72;101128.77;1774145;80;20887;-71
2021/05/27 05:33:12;;;;;;;36.70;23.60;;;;;;;29.19;42.60;101126.89;1774448;80;21387;-73
2021/05/27 05:35:39;;;;;;;45.40;26.90;;;;;;;29.36;42.02;101128.73;1774210;80;20978;-72
2021/05/27 05:38:07;;;;;;;38.25;28.50;;;;;;;29.49;41.82;101123.36;1774555;80;21001;-72
2021/05/27 05:40:34;;;;;;;42.98;27.42;;;;;;;29.60;41.72;101122.75;1774482;80;20886;-71
2021/05/27 05:43:03;;;;;;;39.90;25.88;;;;;;;29.68;41.72;101123.95;1774392;80;20902;-72
2021/05/27 05:45:32;;;;;;;39.18;25.30;;;;;;;29.84;41.39;101115.13;1774523;80;21411;-71
2021/05/27 05:48:01;;;;;;;36.73;25.20;;;;;;;30.06;41.00;101118.42;1774603;80;20966;-71
2021/05/27 05:50:48;;;;;;;33.60;23.15;;;;;;;30.25;41.04;101118.11;1774163;80;21115;-71
2021/05/27 05:53:20;;;;;;;35.60;22.82;;;;;;;30.48;40.25;101115.83;1774382;80;21493;-71
2021/05/27 05:55:49;;;;;;;36.50;23.27;;;;;;;30.70;39.69;101125.84;1774425;80;21442;-72
2021/05/27 05:58:16;;;;;;;40.78;21.70;;;;;;;30.90;39.52;101117.67;1774165;80;21033;-69
2021/05/27 06:00:44;;;;;;;31.90;19.73;;;;;;;31.13;39.09;101117.70;1774683;80;20918;-70
2021/05/27 06:03:13;;;;;;;34.75;20.15;;;;;;;31.42;38.44;101111.43;1774369;80;21099;-73
2021/05/27 06:05:47;;;;;;;25.82;18.32;;;;;;;31.70;37.69;101111.00;1735507;80;20863;-73
2021/05/27 06:08:16;;;;;;;29.67;18.05;;;;;;;31.84;36.75;101111.22;1772797;80;21443;-72
2021/05/27 06:10:44;;;;;;;27.75;18.37;;;;;;;32.03;36.30;101105.88;1774404;80;20891;-73
2021/05/27 06:13:11;;;;;;;33.02;18.32;;;;;;;32.27;35.49;101101.47;1774430;80;20875;-72
2021/05/27 06:15:40;;;;;;;34.92;18.27;;;;;;;32.53;34.80;101109.91;1774490;80;21102;-72
2021/05/27 06:18:09;;;;;;;29.50;17.65;;;;;;;32.77;34.85;101106.27;1774327;80;21467;-75
2021/05/27 06:20:38;;;;;;;30.48;20.57;;;;;;;33.02;34.08;101101.26;1774048;80;21459;-70
2021/05/27 06:23:07;;;;;;;36.28;19.80;;;;;;;33.24;33.15;101095.64;1774308;80;21095;-71
2021/05/27 06:25:34;;;;;;;29.67;19.48;;;;;;;33.43;32.93;101088.23;1774630;80;20982;-69
2021/05/27 06:28:01;;;;;;;27.07;17.92;;;;;;;33.60;32.31;101091.69;1774456;80;21411;-70
2021/05/27 06:30:29;;;;;;;27.82;15.58;;;;;;;33.72;32.61;101088.44;1774269;80;21002;-72
2021/05/27 06:32:58;;;;;;;30.05;16.12;;;;;;;33.90;31.33;101082.61;1774425;80;21045;-72
2021/05/27 06:35:27;;;;;;;28.10;15.70;;;;;;;34.06;31.23;101075.08;1774370;80;21525;-70
2021/05/27 06:37:54;;;;;;;33.90;14.40;;;;;;;34.08;31.35;101080.30;1774443;80;20890;-71
2021/05/27 06:40:23;;;;;;;30.55;14.13;;;;;;;34.06;31.14;101079.16;1774561;80;21088;-71
2021/05/27 06:42:50;;;;;;;30.75;12.98;;;;;;;33.98;30.72;101081.73;1774678;80;20890;-71
2021/05/27 06:45:18;;;;;;;27.40;12.18;;;;;;;33.88;30.98;101082.83;1774595;80;20986;-71
2021/05/27 06:47:48;;;;;;;22.48;12.58;;;;;;;33.68;30.86;101075.55;1774625;80;20923;-69
2021/05/27 06:50:15;;;;;;;25.72;12.18;;;;;;;33.57;30.96;101075.79;1774550;80;21034;-69
2021/05/27 06:52:44;;;;;;;28.38;12.45;;;;;;;33.52;30.72;101071.05;1774607;80;21430;-70
2021/05/27 06:55:11;;;;;;;34.13;12.30;;;;;;;33.52;30.98;101065.61;1774518;80;20894;-69
2021/05/27 06:57:38;;;;;;;32.00;11.18;;;;;;;33.52;31.05;101063.43;1774634;80;20950;-71
2021/05/27 07:00:06;;;;;;;28.83;11.53;;;;;;;33.54;31.26;101066.75;1774397;80;20906;-71
2021/05/27 07:02:33;;;;;;;25.32;8.45;;;;;;;33.57;30.94;101058.11;1774404;80;20934;-71
2021/05/27 07:05:00;;;;;;;28.47;7.03;;;;;;;33.54;30.90;101058.05;1774500;80;21675;-72
2021/05/27 07:07:27;;;;;;;13.68;4.85;;;;;;;33.55;30.91;101058.37;1774261;80;21507;-71
2021/05/27 07:09:55;;;;;;;14.55;5.55;;;;;;;33.68;30.20;101062.77;1774486;80;20919;-70
2021/05/27 07:12:22;;;;;;;7.65;3.85;;;;;;;33.65;29.86;101059.16;1774497;80;20899;-71
2021/05/27 07:14:49;;;;;;;9.68;3.80;;;;;;;33.67;30.21;101060.30;1774320;80;21478;-70
2021/05/27 07:17:16;;;;;;;13.93;3.62;;;;;;;33.88;30.95;101060.24;1774383;80;21091;-71
2021/05/27 07:19:43;;;;;;;7.62;2.30;;;;;;;34.08;29.49;101052.53;1774459;80;20891;-71
2021/05/27 07:22:09;;;;;;;6.65;2.40;;;;;;;34.33;27.37;101047.38;1779201;80;20950;-70
2021/05/27 07:24:36;;;;;;;5.15;2.37;;;;;;;34.64;27.04;101051.59;1780209;80;20926;-71
2021/05/27 07:27:04;;;;;;;3.72;1.85;;;;;;;34.93;26.01;101054.34;1780275;80;20895;-71
2021/05/27 07:29:32;;;;;;;6.10;2.30;;;;;;;35.10;24.27;101049.75;1780184;80;21487;-71
2021/05/27 07:32:01;;;;;;;4.78;2.10;;;;;;;35.16;24.48;101038.45;1780095;80;20914;-72
2021/05/27 07:34:28;;;;;;;5.08;2.08;;;;;;;35.32;25.10;101041.72;1780320;80;20993;-72
2021/05/27 07:36:57;;;;;;;4.90;1.42;;;;;;;35.49;24.15;101045.83;1780073;80;21491;-71
2021/05/27 07:39:25;;;;;;;3.17;1.60;;;;;;;35.62;23.92;101040.08;1780238;80;21402;-72
2021/05/27 07:41:52;;;;;;;4.62;2.52;;;;;;;35.82;24.18;101037.34;1780381;80;21074;-71
2021/05/27 07:44:19;;;;;;;5.05;1.55;;;;;;;36.02;23.78;101036.30;1780269;80;21529;-72
2021/05/27 07:46:46;;;;;;;3.90;2.05;;;;;;;36.18;23.21;101038.72;1780343;80;20969;-79
2021/05/27 07:49:14;;;;;;;6.55;1.50;;;;;;;36.31;22.55;101034.80;1780469;80;20933;-74
2021/05/27 07:51:43;;;;;;;13.72;3.10;;;;;;;36.42;22.05;101023.44;1780260;80;20938;-71
2021/05/27 07:54:10;;;;;;;5.28;1.52;;;;;;;36.60;22.72;101031.90;1780343;80;21595;-69
2021/05/27 07:56:40;;;;;;;9.43;2.65;;;;;;;36.79;21.59;101035.09;1780276;80;20989;-68
2021/05/27 07:59:08;;;;;;;6.87;1.62;;;;;;;36.71;21.35;101037.77;1780462;80;21041;-69
2021/05/27 08:01:35;;;;;;;4.28;1.57;;;;;;;36.66;21.69;101033.06;1780394;80;21562;-70
2021/05/27 08:04:03;;;;;;;4.20;1.52;;;;;;;36.83;22.35;101028.86;1780492;80;20886;-70
2021/05/27 08:06:30;;;;;;;3.12;1.50;;;;;;;36.95;21.12;101029.23;1780448;80;21026;-70
2021/05/27 08:08:57;;;;;;;4.37;1.90;;;;;;;36.97;21.18;101034.73;1780210;80;20993;-69
2021/05/27 08:11:25;;;;;;;1.95;1.75;;;;;;;36.93;21.55;101026.75;1780272;80;20906;-69
2021/05/27 08:13:51;;;;;;;5.65;2.20;;;;;;;36.92;21.41;101027.30;1780314;80;21148;-70
2021/05/27 08:16:19;;;;;;;3.52;1.35;;;;;;;36.93;21.64;101028.12;1780444;80;20942;-69
2021/05/27 08:18:45;;;;;;;4.37;1.37;;;;;;;36.92;21.84;101027.85;1780431;80;21064;-71
2021/05/27 08:21:13;;;;;;;6.10;1.40;;;;;;;37.12;21.61;101025.34;1778335;80;21439;-70
2021/05/27 08:23:40;;;;;;;4.92;1.15;;;;;;;37.03;20.70;101021.40;1774548;80;20981;-68
2021/05/27 08:26:06;;;;;;;4.20;1.65;;;;;;;36.67;21.40;101021.04;1774480;80;20990;-69
2021/05/27 08:28:34;;;;;;;3.72;1.52;;;;;;;36.25;22.23;101016.14;1774589;80;21029;-69
2021/05/27 08:31:02;;;;;;;4.03;1.32;;;;;;;35.96;22.89;101017.37;1774592;80;21513;-70
2021/05/27 08:33:28;;;;;;;2.83;1.20;;;;;;;35.77;21.95;101013.53;1774447;80;20997;-69
2021/05/27 08:35:55;;;;;;;4.55;1.72;;;;;;;35.82;23.09;101019.09;1774470;80;21523;-69
2021/05/27 08:38:23;;;;;;;6.53;1.20;;;;;;;35.97;21.73;101006.17;1774447;80;20952;-69
2021/05/27 08:40:55;;;;;;;3.58;1.60;;;;;;;35.91;22.44;101012.66;1774472;80;21391;-69
2021/05/27 08:43:22;;;;;;;7.08;1.92;;;;;;;35.72;21.75;101005.28;1753374;80;21673;-67
2021/05/27 08:45:51;;;;;;;3.27;1.50;;;;;;;35.47;22.28;101009.24;1774050;80;20871;-69
2021/05/27 08:48:20;;;;;;;6.12;2.08;;;;;;;35.42;23.21;101003.72;1770070;80;21447;-68
2021/05/27 08:50:51;;;;;;;4.20;1.67;;;;;;;35.33;23.57;101000.27;1774572;80;20895;-68
2021/05/27 08:53:19;;;;;;;2.98;1.00;;;;;;;35.16;23.53;100997.55;1774615;80;21447;-68
2021/05/27 08:55:47;;;;;;;5.97;1.70;;;;;;;35.00;23.79;101003.25;1774450;80;21083;-67
2021/05/27 08:58:18;;;;;;;5.90;1.80;;;;;;;34.94;24.50;100993.31;1774660;80;20878;-67
2021/05/27 09:00:45;;;;;;;3.98;3.05;;;;;;;35.02;24.02;100995.66;1774798;80;20878;-69
2021/05/27 09:03:18;;;;;;;2.87;1.60;;;;;;;35.22;23.58;101002.84;1776404;80;20944;-69
2021/05/27 09:05:44;;;;;;;5.83;1.83;;;;;;;35.49;23.54;100998.91;1777383;80;20906;-65
2021/05/27 09:08:28;;;;;;;5.72;1.72;;;;;;;35.82;23.36;100996.41;1776638;80;21030;-71
2021/05/27 09:11:24;;;;;;;2.92;1.75;;;;;;;36.13;22.52;101002.31;1775318;80;20966;-69
2021/05/27 09:14:01;;;;;;;4.65;1.77;;;;;;;36.43;21.63;101000.51;1772351;80;21625;-71
2021/05/27 09:16:25;;;;;;;3.37;1.82;;;;;;;36.60;21.42;101001.84;1773140;80;20938;-70
2021/05/27 09:18:54;;;;;;;2.87;1.55;;;;;;;36.72;21.11;101001.12;1774428;80;20934;-70
2021/05/27 09:21:36;;;;;;;3.15;1.80;;;;;;;36.88;21.10;100996.64;1775814;80;20934;-73
2021/05/27 09:24:04;;;;;;;3.62;1.30;;;;;;;36.97;22.52;100999.18;1780234;80;20933;-72
2021/05/27 09:26:30;;;;;;;6.10;1.60;;;;;;;37.16;21.74;100991.47;1780294;80;20891;-70
2021/05/27 09:29:12;;;;;;;4.78;1.60;;;;;;;37.09;21.61;100983.48;1752347;80;21017;-72
2021/05/27 09:32:04;;;;;;;7.17;1.95;;;;;;;36.85;21.28;100984.31;1780364;80;21541;-71
2021/05/27 09:34:48;;;;;;;3.60;1.70;;;;;;;36.38;21.68;100986.80;1780196;80;21666;-72
2021/05/27 09:37:29;;;;;;;6.15;1.82;;;;;;;35.85;21.67;100991.28;1780256;80;20931;-71
2021/05/27 09:39:58;;;;;;;6.92;2.15;;;;;;;35.41;23.03;100981.59;1780127;80;21394;-72
2021/05/27 09:42:27;;;;;;;3.50;1.90;;;;;;;35.15;23.96;100984.46;1780237;80;21049;-71
2021/05/27 09:44:54;;;;;;;9.98;2.27;;;;;;;34.81;23.39;100978.09;1780263;80;20871;-72
2021/05/27 09:47:33;;;;;;;3.42;1.70;;;;;;;34.50;24.02;100985.65;1780318;80;21631;-74
2021/05/27 09:50:02;;;;;;;4.42;1.87;;;;;;;34.45;23.38;100979.56;1780331;80;21526;-72
2021/05/27 09:52:45;;;;;;;2.72;1.65;;;;;;;34.45;23.23;100987.73;1780207;80;20934;-72
2021/05/27 09:55:28;;;;;;;;;;;;;;;34.53;23.09;100976.16;1782135;80;20942;-70
2021/05/27 09:57:54;;;;;;;4.45;1.45;;;;;;;34.72;23.73;100979.56;1779246;80;20174;-67
2021/05/27 10:00:26;;;;;;;6.62;1.80;;;;;;;34.93;22.65;100980.74;1727346;80;21114;-67
2021/05/27 10:02:53;;;;;;;4.00;1.95;;;;;;;35.05;23.07;100971.97;1780212;80;20922;-68
2021/05/27 10:05:20;;;;;;;2.90;1.60;;;;;;;35.00;23.79;100968.63;1780369;80;21001;-69
2021/05/27 10:07:52;;;;;;;4.20;2.22;;;;;;;35.09;23.66;100970.41;1780224;80;21470;-69
2021/05/27 10:10:22;;;;;;;6.37;2.25;;;;;;;34.91;22.70;100959.20;1780152;80;20895;-69
2021/05/27 10:12:52;;;;;;;5.50;2.10;;;;;;;34.99;23.29;100967.50;1780279;80;21394;-69
2021/05/27 10:15:23;;;;;;;6.15;1.75;;;;;;;35.13;23.12;100966.67;1780199;80;20953;-68
2021/05/27 10:17:51;;;;;;;5.72;2.05;;;;;;;35.21;22.54;100967.09;1779949;80;20958;-68
2021/05/27 10:20:20;;;;;;;2.27;2.02;;;;;;;35.13;22.34;100959.85;1780219;80;20981;-71
2021/05/27 10:22:48;;;;;;;4.05;2.08;;;;;;;35.17;22.96;100960.47;1776268;80;20996;-68
2021/05/27 10:25:17;;;;;;;6.42;2.37;;;;;;;34.95;22.35;100964.97;1774472;80;21841;-69
2021/05/27 10:27:46;;;;;;;3.98;2.05;;;;;;;34.66;23.19;100956.83;1774350;80;21404;-70
2021/05/27 10:30:15;;;;;;;6.55;2.42;;;;;;;34.54;23.29;100958.22;1774388;80;20879;-69
2021/05/27 10:32:49;;;;;;;4.35;2.70;;;;;;;34.32;22.90;100958.61;1774509;80;20942;-69
2021/05/27 10:35:15;;;;;;;9.95;2.80;;;;;;;34.12;24.59;100957.66;1775043;80;20922;-68
2021/05/27 10:37:52;;;;;;;4.75;2.52;;;;;;;33.96;25.67;100960.56;1774594;80;21091;-68
2021/05/27 10:40:36;;;;;;;5.97;2.12;;;;;;;33.86;26.31;100962.51;1774489;80;20970;-71
2021/05/27 10:43:12;;;;;;;3.40;2.55;;;;;;;33.60;24.87;100958.41;1774305;80;20882;-71
2021/05/27 10:46:09;;;;;;;7.05;2.50;;;;;;;33.24;24.13;100951.56;1774311;80;20910;-71
2021/05/27 10:48:46;;;;;;;4.42;2.40;;;;;;;32.78;23.99;100951.72;1774517;80;20998;-73
2021/05/27 10:51:31;;;;;;;3.50;2.42;;;;;;;32.27;25.53;100955.72;1774306;80;21008;-71
2021/05/27 10:54:05;;;;;;;;;;;;;;;31.91;25.52;100953.82;1776892;80;21029;-70
2021/05/27 10:56:43;;;;;;;3.87;2.50;;;;;;;31.57;27.23;100958.73;1774392;80;20179;-70
2021/05/27 10:59:12;;;;;;;3.27;2.77;;;;;;;31.27;28.80;100951.78;1774607;80;20974;-73
2021/05/27 11:01:47;;;;;;;7.62;3.08;;;;;;;30.98;30.19;100958.14;1774422;80;21455;-68
2021/05/27 11:04:33;;;;;;;5.05;2.92;;;;;;;30.75;31.02;100947.86;1774395;80;21105;-69
2021/05/27 11:07:23;;;;;;;4.92;2.83;;;;;;;30.53;30.45;100950.88;1774262;80;20899;-68
2021/05/27 11:09:54;;;;;;;10.32;3.05;;;;;;;30.31;30.26;100952.23;1774519;80;20902;-68
2021/05/27 11:12:27;;;;;;;6.67;2.58;;;;;;;30.09;30.87;100951.66;1774385;80;20931;-68
2021/05/27 11:15:11;;;;;;;2.72;2.45;;;;;;;29.91;30.37;100947.75;1774615;80;21499;-68
2021/05/27 11:17:37;;;;;;;;;;;;;;;29.73;31.05;100943.53;1776945;80;21079;-68
2021/05/27 11:20:14;;;;;;;3.98;2.52;;;;;;;29.57;32.68;100942.57;1774328;80;20206;-70
2021/05/27 11:22:53;;;;;;;4.00;2.17;;;;;;;29.41;32.12;100950.06;1776313;80;20954;-69
2021/05/27 11:25:25;;;;;;;3.90;3.17;;;;;;;29.28;31.93;100941.47;1779959;80;20930;-68
2021/05/27 11:28:00;;;;;;;2.98;2.70;;;;;;;29.18;32.97;100937.50;1780167;80;20999;-68
2021/05/27 11:30:37;;;;;;;4.72;3.20;;;;;;;29.08;33.00;100937.86;1780256;80;21091;-69
2021/05/27 11:33:15;;;;;;;3.30;2.95;;;;;;;29.03;33.05;100933.61;1780123;80;20882;-70